sensor_id;sensor_type;location;lat;lon;timestamp;P1;durP1;ratioP1;P2;durP2;ratioP2
8102;SDS011;4094;49.948;11.574;2023-10-09T00:00:15;6.50;;;5.97;;
8102;SDS011;4094;49.948;11.574;2023-10-09T00:03:04;5.27;;;4.87;;
8102;SDS011;4094;49.948;11.574;2023-10-09T00:05:34;5.83;;;5.30;;
8102;SDS011;4094;49.948;11.574;2023-10-09T00:08:14;5.40;;;5.00;;
8102;SDS011;4094;49.948;11.574;2023-10-09T00:10:50;5.20;;;4.90;;
8102;SDS011;4094;49.948;11.574;2023-10-09T00:13:21;5.40;;;5.00;;
8102;SDS011;4094;49.948;11.574;2023-10-09T00:15:56;5.80;;;5.37;;
8102;SDS011;4094;49.948;11.574;2023-10-09T00:18:30;5.67;;;5.23;;
8102;SDS011;4094;49.948;11.574;2023-10-09T00:21:01;5.17;;;4.77;;
8102;SDS011;4094;49.948;11.574;2023-10-09T00:23:40;5.87;;;5.47;;
8102;SDS011;4094;49.948;11.574;2023-10-09T00:26:10;5.13;;;4.73;;
8102;SDS011;4094;49.948;11.574;2023-10-09T00:28:50;5.90;;;5.43;;
8102;SDS011;4094;49.948;11.574;2023-10-09T00:31:20;5.27;;;4.97;;
8102;SDS011;4094;49.948;11.574;2023-10-09T00:34:02;5.70;;;5.30;;
8102;SDS011;4094;49.948;11.574;2023-10-09T00:36:33;5.43;;;5.10;;
8102;SDS011;4094;49.948;11.574;2023-10-09T00:39:17;6.00;;;5.50;;
8102;SDS011;4094;49.948;11.574;2023-10-09T00:42:01;5.67;;;5.37;;
8102;SDS011;4094;49.948;11.574;2023-10-09T00:44:33;6.07;;;5.57;;
8102;SDS011;4094;49.948;11.574;2023-10-09T00:47:06;5.27;;;4.97;;
8102;SDS011;4094;49.948;11.574;2023-10-09T00:49:51;6.20;;;5.80;;
8102;SDS011;4094;49.948;11.574;2023-10-09T00:52:30;5.43;;;5.13;;
8102;SDS011;4094;49.948;11.574;2023-10-09T00:55:08;5.80;;;5.50;;
8102;SDS011;4094;49.948;11.574;2023-10-09T00:57:42;5.67;;;5.20;;
8102;SDS011;4094;49.948;11.574;2023-10-09T01:00:24;6.27;;;5.83;;
8102;SDS011;4094;49.948;11.574;2023-10-09T01:03:14;6.20;;;5.70;;
8102;SDS011;4094;49.948;11.574;2023-10-09T01:05:50;5.63;;;5.33;;
8102;SDS011;4094;49.948;11.574;2023-10-09T01:08:26;5.60;;;5.20;;
8102;SDS011;4094;49.948;11.574;2023-10-09T01:11:11;5.77;;;5.30;;
8102;SDS011;4094;49.948;11.574;2023-10-09T01:13:46;6.17;;;5.70;;
8102;SDS011;4094;49.948;11.574;2023-10-09T01:16:23;5.87;;;5.47;;
8102;SDS011;4094;49.948;11.574;2023-10-09T01:18:53;6.43;;;5.90;;
8102;SDS011;4094;49.948;11.574;2023-10-09T01:21:26;5.90;;;5.47;;
8102;SDS011;4094;49.948;11.574;2023-10-09T01:24:01;5.47;;;5.17;;
8102;SDS011;4094;49.948;11.574;2023-10-09T01:26:37;6.03;;;5.63;;
8102;SDS011;4094;49.948;11.574;2023-10-09T01:29:14;5.97;;;5.53;;
8102;SDS011;4094;49.948;11.574;2023-10-09T01:31:46;5.80;;;5.40;;
8102;SDS011;4094;49.948;11.574;2023-10-09T01:34:23;6.27;;;5.77;;
8102;SDS011;4094;49.948;11.574;2023-10-09T01:37:06;5.60;;;5.20;;
8102;SDS011;4094;49.948;11.574;2023-10-09T01:39:48;5.77;;;5.27;;
8102;SDS011;4094;49.948;11.574;2023-10-09T01:42:20;6.03;;;5.63;;
8102;SDS011;4094;49.948;11.574;2023-10-09T01:44:59;6.10;;;5.70;;
8102;SDS011;4094;49.948;11.574;2023-10-09T01:47:38;6.07;;;5.47;;
8102;SDS011;4094;49.948;11.574;2023-10-09T01:50:08;6.63;;;6.13;;
8102;SDS011;4094;49.948;11.574;2023-10-09T01:52:47;6.57;;;5.73;;
8102;SDS011;4094;49.948;11.574;2023-10-09T01:55:18;6.30;;;5.83;;
8102;SDS011;4094;49.948;11.574;2023-10-09T01:58:00;6.10;;;5.70;;
8102;SDS011;4094;49.948;11.574;2023-10-09T02:00:33;6.73;;;6.27;;
8102;SDS011;4094;49.948;11.574;2023-10-09T02:03:10;6.60;;;6.10;;
8102;SDS011;4094;49.948;11.574;2023-10-09T02:05:52;6.50;;;6.00;;
8102;SDS011;4094;49.948;11.574;2023-10-09T02:08:27;6.80;;;6.40;;
8102;SDS011;4094;49.948;11.574;2023-10-09T02:11:05;6.10;;;5.60;;
8102;SDS011;4094;49.948;11.574;2023-10-09T02:13:43;6.80;;;6.30;;
8102;SDS011;4094;49.948;11.574;2023-10-09T02:16:15;7.10;;;6.50;;
8102;SDS011;4094;49.948;11.574;2023-10-09T02:18:56;6.37;;;5.80;;
8102;SDS011;4094;49.948;11.574;2023-10-09T02:21:26;6.47;;;5.97;;
8102;SDS011;4094;49.948;11.574;2023-10-09T02:23:58;6.73;;;6.23;;
8102;SDS011;4094;49.948;11.574;2023-10-09T02:26:33;7.10;;;6.40;;
8102;SDS011;4094;49.948;11.574;2023-10-09T02:29:28;6.53;;;6.03;;
8102;SDS011;4094;49.948;11.574;2023-10-09T02:32:02;6.87;;;6.37;;
8102;SDS011;4094;49.948;11.574;2023-10-09T02:34:41;7.30;;;6.80;;
8102;SDS011;4094;49.948;11.574;2023-10-09T02:37:13;6.80;;;6.30;;
8102;SDS011;4094;49.948;11.574;2023-10-09T02:39:50;6.70;;;6.20;;
8102;SDS011;4094;49.948;11.574;2023-10-09T02:42:21;7.00;;;6.40;;
8102;SDS011;4094;49.948;11.574;2023-10-09T02:44:56;6.83;;;6.30;;
8102;SDS011;4094;49.948;11.574;2023-10-09T02:47:26;6.63;;;6.03;;
8102;SDS011;4094;49.948;11.574;2023-10-09T02:49:59;7.07;;;6.47;;
8102;SDS011;4094;49.948;11.574;2023-10-09T02:52:34;6.70;;;6.20;;
8102;SDS011;4094;49.948;11.574;2023-10-09T02:55:09;6.63;;;6.10;;
8102;SDS011;4094;49.948;11.574;2023-10-09T02:57:51;6.43;;;5.97;;
8102;SDS011;4094;49.948;11.574;2023-10-09T03:00:32;7.03;;;6.50;;
8102;SDS011;4094;49.948;11.574;2023-10-09T03:03:04;6.27;;;5.87;;
8102;SDS011;4094;49.948;11.574;2023-10-09T03:05:35;6.90;;;6.40;;
8102;SDS011;4094;49.948;11.574;2023-10-09T03:08:09;6.67;;;6.27;;
8102;SDS011;4094;49.948;11.574;2023-10-09T03:10:40;6.60;;;6.20;;
8102;SDS011;4094;49.948;11.574;2023-10-09T03:13:10;6.80;;;6.30;;
8102;SDS011;4094;49.948;11.574;2023-10-09T03:15:42;6.50;;;6.10;;
8102;SDS011;4094;49.948;11.574;2023-10-09T03:18:11;7.30;;;6.60;;
8102;SDS011;4094;49.948;11.574;2023-10-09T03:20:42;7.33;;;6.83;;
8102;SDS011;4094;49.948;11.574;2023-10-09T03:23:12;7.10;;;6.60;;
8102;SDS011;4094;49.948;11.574;2023-10-09T03:25:41;7.30;;;6.60;;
8102;SDS011;4094;49.948;11.574;2023-10-09T03:28:14;7.10;;;6.50;;
8102;SDS011;4094;49.948;11.574;2023-10-09T03:30:42;6.83;;;6.33;;
8102;SDS011;4094;49.948;11.574;2023-10-09T03:33:14;7.50;;;7.00;;
8102;SDS011;4094;49.948;11.574;2023-10-09T03:35:43;7.07;;;6.57;;
8102;SDS011;4094;49.948;11.574;2023-10-09T03:38:12;7.27;;;6.67;;
8102;SDS011;4094;49.948;11.574;2023-10-09T03:40:44;6.93;;;6.50;;
8102;SDS011;4094;49.948;11.574;2023-10-09T03:43:17;6.77;;;6.27;;
8102;SDS011;4094;49.948;11.574;2023-10-09T03:45:46;7.13;;;6.63;;
8102;SDS011;4094;49.948;11.574;2023-10-09T03:48:19;7.40;;;6.83;;
8102;SDS011;4094;49.948;11.574;2023-10-09T03:50:53;7.00;;;6.57;;
8102;SDS011;4094;49.948;11.574;2023-10-09T03:53:36;6.93;;;6.47;;
8102;SDS011;4094;49.948;11.574;2023-10-09T03:56:07;7.30;;;6.80;;
8102;SDS011;4094;49.948;11.574;2023-10-09T03:58:43;7.27;;;6.77;;
8102;SDS011;4094;49.948;11.574;2023-10-09T04:01:13;7.30;;;6.73;;
8102;SDS011;4094;49.948;11.574;2023-10-09T04:03:50;7.73;;;7.03;;
8102;SDS011;4094;49.948;11.574;2023-10-09T04:06:23;7.40;;;6.90;;
8102;SDS011;4094;49.948;11.574;2023-10-09T04:08:56;8.20;;;7.50;;
8102;SDS011;4094;49.948;11.574;2023-10-09T04:11:26;6.93;;;6.53;;
8102;SDS011;4094;49.948;11.574;2023-10-09T04:13:57;7.07;;;6.60;;
8102;SDS011;4094;49.948;11.574;2023-10-09T04:16:27;7.83;;;7.20;;
8102;SDS011;4094;49.948;11.574;2023-10-09T04:19:03;7.27;;;6.77;;
8102;SDS011;4094;49.948;11.574;2023-10-09T04:21:38;7.73;;;7.10;;
8102;SDS011;4094;49.948;11.574;2023-10-09T04:24:09;8.80;;;7.57;;
8102;SDS011;4094;49.948;11.574;2023-10-09T04:26:50;7.80;;;7.20;;
8102;SDS011;4094;49.948;11.574;2023-10-09T04:29:27;8.73;;;7.80;;
8102;SDS011;4094;49.948;11.574;2023-10-09T04:32:05;7.87;;;7.33;;
8102;SDS011;4094;49.948;11.574;2023-10-09T04:34:39;7.80;;;7.20;;
8102;SDS011;4094;49.948;11.574;2023-10-09T04:37:15;7.80;;;7.17;;
8102;SDS011;4094;49.948;11.574;2023-10-09T04:39:56;6.93;;;6.33;;
8102;SDS011;4094;49.948;11.574;2023-10-09T04:42:38;8.10;;;7.50;;
8102;SDS011;4094;49.948;11.574;2023-10-09T04:45:15;8.50;;;7.60;;
8102;SDS011;4094;49.948;11.574;2023-10-09T04:48:08;8.10;;;7.37;;
8102;SDS011;4094;49.948;11.574;2023-10-09T04:50:37;8.27;;;7.50;;
8102;SDS011;4094;49.948;11.574;2023-10-09T04:53:26;7.60;;;7.10;;
8102;SDS011;4094;49.948;11.574;2023-10-09T04:55:56;8.10;;;7.50;;
8102;SDS011;4094;49.948;11.574;2023-10-09T04:58:32;7.93;;;7.27;;
8102;SDS011;4094;49.948;11.574;2023-10-09T05:01:08;8.30;;;7.50;;
8102;SDS011;4094;49.948;11.574;2023-10-09T05:04:04;8.20;;;7.60;;
8102;SDS011;4094;49.948;11.574;2023-10-09T05:06:47;8.03;;;7.40;;
8102;SDS011;4094;49.948;11.574;2023-10-09T05:09:23;7.83;;;7.33;;
8102;SDS011;4094;49.948;11.574;2023-10-09T05:11:52;8.50;;;7.67;;
8102;SDS011;4094;49.948;11.574;2023-10-09T05:14:27;8.67;;;7.87;;
8102;SDS011;4094;49.948;11.574;2023-10-09T05:17:07;10.07;;;7.57;;
8102;SDS011;4094;49.948;11.574;2023-10-09T05:19:43;8.67;;;7.90;;
8102;SDS011;4094;49.948;11.574;2023-10-09T05:22:44;8.10;;;7.43;;
8102;SDS011;4094;49.948;11.574;2023-10-09T05:25:25;8.53;;;7.93;;
8102;SDS011;4094;49.948;11.574;2023-10-09T05:28:12;8.83;;;8.13;;
8102;SDS011;4094;49.948;11.574;2023-10-09T05:30:58;10.03;;;8.93;;
8102;SDS011;4094;49.948;11.574;2023-10-09T05:33:38;10.47;;;9.67;;
8102;SDS011;4094;49.948;11.574;2023-10-09T05:36:07;10.80;;;9.70;;
8102;SDS011;4094;49.948;11.574;2023-10-09T05:38:53;10.43;;;9.53;;
8102;SDS011;4094;49.948;11.574;2023-10-09T05:41:45;9.50;;;8.80;;
8102;SDS011;4094;49.948;11.574;2023-10-09T05:44:15;8.33;;;7.63;;
8102;SDS011;4094;49.948;11.574;2023-10-09T05:46:58;8.47;;;7.77;;
8102;SDS011;4094;49.948;11.574;2023-10-09T05:49:46;8.93;;;8.13;;
8102;SDS011;4094;49.948;11.574;2023-10-09T05:52:22;8.23;;;7.60;;
8102;SDS011;4094;49.948;11.574;2023-10-09T05:55:08;8.17;;;7.57;;
8102;SDS011;4094;49.948;11.574;2023-10-09T05:58:08;8.90;;;8.30;;
8102;SDS011;4094;49.948;11.574;2023-10-09T06:00:55;9.23;;;8.33;;
8102;SDS011;4094;49.948;11.574;2023-10-09T06:03:43;8.83;;;7.97;;
8102;SDS011;4094;49.948;11.574;2023-10-09T06:06:23;9.10;;;8.30;;
8102;SDS011;4094;49.948;11.574;2023-10-09T06:09:02;9.37;;;8.53;;
8102;SDS011;4094;49.948;11.574;2023-10-09T06:11:58;8.80;;;8.00;;
8102;SDS011;4094;49.948;11.574;2023-10-09T06:14:57;9.43;;;8.63;;
8102;SDS011;4094;49.948;11.574;2023-10-09T06:17:45;8.93;;;8.17;;
8102;SDS011;4094;49.948;11.574;2023-10-09T06:20:18;8.87;;;8.27;;
8102;SDS011;4094;49.948;11.574;2023-10-09T06:23:06;9.33;;;8.63;;
8102;SDS011;4094;49.948;11.574;2023-10-09T06:25:44;8.73;;;8.03;;
8102;SDS011;4094;49.948;11.574;2023-10-09T06:28:19;9.30;;;8.27;;
8102;SDS011;4094;49.948;11.574;2023-10-09T06:31:00;8.87;;;7.97;;
8102;SDS011;4094;49.948;11.574;2023-10-09T06:33:50;8.77;;;8.07;;
8102;SDS011;4094;49.948;11.574;2023-10-09T06:36:43;8.90;;;8.10;;
8102;SDS011;4094;49.948;11.574;2023-10-09T06:39:22;9.67;;;8.87;;
8102;SDS011;4094;49.948;11.574;2023-10-09T06:42:09;9.87;;;8.93;;
8102;SDS011;4094;49.948;11.574;2023-10-09T06:44:59;9.30;;;8.40;;
8102;SDS011;4094;49.948;11.574;2023-10-09T06:47:32;8.90;;;8.20;;
8102;SDS011;4094;49.948;11.574;2023-10-09T06:50:10;9.13;;;8.43;;
8102;SDS011;4094;49.948;11.574;2023-10-09T06:53:15;9.50;;;8.60;;
8102;SDS011;4094;49.948;11.574;2023-10-09T06:55:55;9.10;;;8.40;;
8102;SDS011;4094;49.948;11.574;2023-10-09T06:58:34;8.83;;;8.13;;
8102;SDS011;4094;49.948;11.574;2023-10-09T07:01:09;9.00;;;8.17;;
8102;SDS011;4094;49.948;11.574;2023-10-09T07:03:52;8.70;;;7.90;;
8102;SDS011;4094;49.948;11.574;2023-10-09T07:06:27;8.77;;;7.77;;
8102;SDS011;4094;49.948;11.574;2023-10-09T07:09:11;9.50;;;8.63;;
8102;SDS011;4094;49.948;11.574;2023-10-09T07:11:49;8.97;;;8.27;;
8102;SDS011;4094;49.948;11.574;2023-10-09T07:14:26;9.30;;;8.57;;
8102;SDS011;4094;49.948;11.574;2023-10-09T07:17:15;9.97;;;8.93;;
8102;SDS011;4094;49.948;11.574;2023-10-09T07:19:50;9.00;;;8.20;;
8102;SDS011;4094;49.948;11.574;2023-10-09T07:22:43;9.23;;;8.20;;
8102;SDS011;4094;49.948;11.574;2023-10-09T07:28:27;9.10;;;8.20;;
8102;SDS011;4094;49.948;11.574;2023-10-09T07:31:16;13.10;;;9.20;;
8102;SDS011;4094;49.948;11.574;2023-10-09T07:33:52;9.57;;;8.70;;
8102;SDS011;4094;49.948;11.574;2023-10-09T07:36:35;11.93;;;9.80;;
8102;SDS011;4094;49.948;11.574;2023-10-09T07:39:06;11.40;;;10.30;;
8102;SDS011;4094;49.948;11.574;2023-10-09T07:41:42;10.57;;;9.60;;
8102;SDS011;4094;49.948;11.574;2023-10-09T07:44:30;11.30;;;10.20;;
8102;SDS011;4094;49.948;11.574;2023-10-09T07:47:05;11.03;;;10.03;;
8102;SDS011;4094;49.948;11.574;2023-10-09T07:49:45;11.83;;;10.70;;
8102;SDS011;4094;49.948;11.574;2023-10-09T07:52:21;11.70;;;10.50;;
8102;SDS011;4094;49.948;11.574;2023-10-09T07:54:51;12.30;;;10.33;;
8102;SDS011;4094;49.948;11.574;2023-10-09T07:57:29;10.47;;;9.47;;
8102;SDS011;4094;49.948;11.574;2023-10-09T08:00:08;10.00;;;9.00;;
8102;SDS011;4094;49.948;11.574;2023-10-09T08:03:03;9.57;;;8.70;;
8102;SDS011;4094;49.948;11.574;2023-10-09T08:05:51;10.13;;;9.13;;
8102;SDS011;4094;49.948;11.574;2023-10-09T08:08:34;9.47;;;8.57;;
8102;SDS011;4094;49.948;11.574;2023-10-09T08:11:30;9.30;;;8.33;;
8102;SDS011;4094;49.948;11.574;2023-10-09T08:14:25;9.27;;;8.57;;
8102;SDS011;4094;49.948;11.574;2023-10-09T08:17:14;11.00;;;8.80;;
8102;SDS011;4094;49.948;11.574;2023-10-09T08:19:48;9.23;;;8.43;;
8102;SDS011;4094;49.948;11.574;2023-10-09T08:22:26;9.73;;;8.33;;
8102;SDS011;4094;49.948;11.574;2023-10-09T08:25:19;10.10;;;8.83;;
8102;SDS011;4094;49.948;11.574;2023-10-09T08:28:00;10.70;;;9.60;;
8102;SDS011;4094;49.948;11.574;2023-10-09T08:30:44;10.17;;;9.17;;
8102;SDS011;4094;49.948;11.574;2023-10-09T08:33:20;12.87;;;9.40;;
8102;SDS011;4094;49.948;11.574;2023-10-09T08:36:27;9.93;;;8.87;;
8102;SDS011;4094;49.948;11.574;2023-10-09T08:39:04;10.20;;;9.27;;
8102;SDS011;4094;49.948;11.574;2023-10-09T08:41:44;12.43;;;10.20;;
8102;SDS011;4094;49.948;11.574;2023-10-09T08:44:14;11.03;;;9.80;;
8102;SDS011;4094;49.948;11.574;2023-10-09T08:46:50;11.00;;;10.00;;
8102;SDS011;4094;49.948;11.574;2023-10-09T08:49:22;10.60;;;9.37;;
8102;SDS011;4094;49.948;11.574;2023-10-09T08:51:54;11.70;;;9.80;;
8102;SDS011;4094;49.948;11.574;2023-10-09T08:54:24;11.23;;;9.93;;
8102;SDS011;4094;49.948;11.574;2023-10-09T08:56:53;10.17;;;9.17;;
8102;SDS011;4094;49.948;11.574;2023-10-09T08:59:25;10.37;;;9.27;;
8102;SDS011;4094;49.948;11.574;2023-10-09T09:01:54;10.63;;;9.53;;
8102;SDS011;4094;49.948;11.574;2023-10-09T09:04:34;11.27;;;9.40;;
8102;SDS011;4094;49.948;11.574;2023-10-09T09:07:22;11.20;;;9.27;;
8102;SDS011;4094;49.948;11.574;2023-10-09T09:09:54;10.20;;;9.03;;
8102;SDS011;4094;49.948;11.574;2023-10-09T09:12:25;11.37;;;8.80;;
8102;SDS011;4094;49.948;11.574;2023-10-09T09:14:58;9.20;;;8.33;;
8102;SDS011;4094;49.948;11.574;2023-10-09T09:17:31;10.73;;;8.60;;
8102;SDS011;4094;49.948;11.574;2023-10-09T09:20:14;11.17;;;9.00;;
8102;SDS011;4094;49.948;11.574;2023-10-09T09:22:51;10.20;;;9.20;;
8102;SDS011;4094;49.948;11.574;2023-10-09T09:25:22;11.57;;;8.77;;
8102;SDS011;4094;49.948;11.574;2023-10-09T09:27:53;10.60;;;8.87;;
8102;SDS011;4094;49.948;11.574;2023-10-09T09:30:27;10.13;;;8.87;;
8102;SDS011;4094;49.948;11.574;2023-10-09T09:33:15;10.70;;;9.53;;
8102;SDS011;4094;49.948;11.574;2023-10-09T09:35:59;9.27;;;8.27;;
8102;SDS011;4094;49.948;11.574;2023-10-09T09:38:32;9.67;;;8.23;;
8102;SDS011;4094;49.948;11.574;2023-10-09T09:41:18;10.27;;;9.10;;
8102;SDS011;4094;49.948;11.574;2023-10-09T09:43:52;11.10;;;9.40;;
8102;SDS011;4094;49.948;11.574;2023-10-09T09:46:24;9.57;;;8.63;;
8102;SDS011;4094;49.948;11.574;2023-10-09T09:49:01;10.00;;;8.57;;
8102;SDS011;4094;49.948;11.574;2023-10-09T09:51:32;10.50;;;8.80;;
8102;SDS011;4094;49.948;11.574;2023-10-09T09:54:02;11.17;;;9.00;;
8102;SDS011;4094;49.948;11.574;2023-10-09T09:56:36;11.73;;;9.27;;
8102;SDS011;4094;49.948;11.574;2023-10-09T09:59:06;10.13;;;8.67;;
8102;SDS011;4094;49.948;11.574;2023-10-09T10:01:41;9.73;;;8.73;;
8102;SDS011;4094;49.948;11.574;2023-10-09T10:04:15;12.30;;;8.63;;
8102;SDS011;4094;49.948;11.574;2023-10-09T10:06:50;9.63;;;8.33;;
8102;SDS011;4094;49.948;11.574;2023-10-09T10:09:34;9.67;;;8.67;;
8102;SDS011;4094;49.948;11.574;2023-10-09T10:12:07;10.17;;;8.90;;
8102;SDS011;4094;49.948;11.574;2023-10-09T10:14:53;14.33;;;8.53;;
8102;SDS011;4094;49.948;11.574;2023-10-09T10:17:26;9.97;;;8.90;;
8102;SDS011;4094;49.948;11.574;2023-10-09T10:20:01;10.50;;;8.63;;
8102;SDS011;4094;49.948;11.574;2023-10-09T10:23:15;13.47;;;8.00;;
8102;SDS011;4094;49.948;11.574;2023-10-09T10:25:53;10.60;;;8.40;;
8102;SDS011;4094;49.948;11.574;2023-10-09T10:28:28;10.03;;;8.33;;
8102;SDS011;4094;49.948;11.574;2023-10-09T10:31:04;9.57;;;8.67;;
8102;SDS011;4094;49.948;11.574;2023-10-09T10:36:34;9.70;;;8.53;;
8102;SDS011;4094;49.948;11.574;2023-10-09T10:39:05;9.27;;;8.30;;
8102;SDS011;4094;49.948;11.574;2023-10-09T10:41:37;13.17;;;8.97;;
8102;SDS011;4094;49.948;11.574;2023-10-09T10:44:25;9.83;;;8.80;;
8102;SDS011;4094;49.948;11.574;2023-10-09T10:47:05;13.00;;;9.40;;
8102;SDS011;4094;49.948;11.574;2023-10-09T10:49:51;11.93;;;9.37;;
8102;SDS011;4094;49.948;11.574;2023-10-09T10:52:27;14.33;;;8.50;;
8102;SDS011;4094;49.948;11.574;2023-10-09T10:55:12;9.40;;;8.27;;
8102;SDS011;4094;49.948;11.574;2023-10-09T10:57:46;8.77;;;7.97;;
8102;SDS011;4094;49.948;11.574;2023-10-09T11:00:37;10.13;;;7.37;;
8102;SDS011;4094;49.948;11.574;2023-10-09T11:03:39;9.50;;;8.23;;
8102;SDS011;4094;49.948;11.574;2023-10-09T11:06:33;9.13;;;8.23;;
8102;SDS011;4094;49.948;11.574;2023-10-09T11:09:06;8.33;;;7.07;;
8102;SDS011;4094;49.948;11.574;2023-10-09T11:11:49;8.83;;;7.93;;
8102;SDS011;4094;49.948;11.574;2023-10-09T11:14:23;11.57;;;8.07;;
8102;SDS011;4094;49.948;11.574;2023-10-09T11:16:52;9.53;;;8.50;;
8102;SDS011;4094;49.948;11.574;2023-10-09T11:19:25;8.40;;;7.50;;
8102;SDS011;4094;49.948;11.574;2023-10-09T11:22:01;10.57;;;7.30;;
8102;SDS011;4094;49.948;11.574;2023-10-09T11:24:56;8.00;;;7.30;;
8102;SDS011;4094;49.948;11.574;2023-10-09T11:27:40;9.07;;;8.17;;
8102;SDS011;4094;49.948;11.574;2023-10-09T11:30:18;8.53;;;7.63;;
8102;SDS011;4094;49.948;11.574;2023-10-09T11:33:04;9.20;;;8.00;;
8102;SDS011;4094;49.948;11.574;2023-10-09T11:35:33;9.37;;;6.90;;
8102;SDS011;4094;49.948;11.574;2023-10-09T11:38:04;7.67;;;6.73;;
8102;SDS011;4094;49.948;11.574;2023-10-09T11:40:48;7.20;;;6.47;;
8102;SDS011;4094;49.948;11.574;2023-10-09T11:43:47;8.13;;;6.20;;
8102;SDS011;4094;49.948;11.574;2023-10-09T11:46:20;7.60;;;6.33;;
8102;SDS011;4094;49.948;11.574;2023-10-09T11:49:17;7.67;;;6.97;;
8102;SDS011;4094;49.948;11.574;2023-10-09T11:52:11;7.17;;;6.43;;
8102;SDS011;4094;49.948;11.574;2023-10-09T11:55:00;9.30;;;6.33;;
8102;SDS011;4094;49.948;11.574;2023-10-09T11:57:31;7.10;;;6.50;;
8102;SDS011;4094;49.948;11.574;2023-10-09T12:00:01;8.17;;;6.27;;
8102;SDS011;4094;49.948;11.574;2023-10-09T12:02:49;9.27;;;6.37;;
8102;SDS011;4094;49.948;11.574;2023-10-09T12:05:20;7.30;;;6.10;;
8102;SDS011;4094;49.948;11.574;2023-10-09T12:07:55;7.80;;;6.37;;
8102;SDS011;4094;49.948;11.574;2023-10-09T12:10:28;7.37;;;6.63;;
8102;SDS011;4094;49.948;11.574;2023-10-09T12:12:57;8.60;;;6.23;;
8102;SDS011;4094;49.948;11.574;2023-10-09T12:15:29;6.90;;;6.20;;
8102;SDS011;4094;49.948;11.574;2023-10-09T12:18:05;7.10;;;6.40;;
8102;SDS011;4094;49.948;11.574;2023-10-09T12:20:42;7.40;;;5.97;;
8102;SDS011;4094;49.948;11.574;2023-10-09T12:23:17;7.80;;;7.00;;
8102;SDS011;4094;49.948;11.574;2023-10-09T12:25:49;7.53;;;6.83;;
8102;SDS011;4094;49.948;11.574;2023-10-09T12:28:18;8.00;;;6.13;;
8102;SDS011;4094;49.948;11.574;2023-10-09T12:30:48;6.53;;;5.90;;
8102;SDS011;4094;49.948;11.574;2023-10-09T12:33:19;7.07;;;6.40;;
8102;SDS011;4094;49.948;11.574;2023-10-09T12:35:56;6.80;;;6.10;;
8102;SDS011;4094;49.948;11.574;2023-10-09T12:38:29;7.57;;;6.80;;
8102;SDS011;4094;49.948;11.574;2023-10-09T12:41:03;6.00;;;5.50;;
8102;SDS011;4094;49.948;11.574;2023-10-09T12:43:44;7.93;;;6.40;;
8102;SDS011;4094;49.948;11.574;2023-10-09T12:46:14;10.30;;;6.93;;
8102;SDS011;4094;49.948;11.574;2023-10-09T12:48:44;6.80;;;6.10;;
8102;SDS011;4094;49.948;11.574;2023-10-09T12:51:16;7.63;;;6.77;;
8102;SDS011;4094;49.948;11.574;2023-10-09T12:53:45;8.93;;;6.37;;
8102;SDS011;4094;49.948;11.574;2023-10-09T12:56:17;16.53;;;6.10;;
8102;SDS011;4094;49.948;11.574;2023-10-09T12:58:47;7.93;;;6.63;;
8102;SDS011;4094;49.948;11.574;2023-10-09T13:01:21;7.73;;;6.93;;
8102;SDS011;4094;49.948;11.574;2023-10-09T13:03:50;9.47;;;6.70;;
8102;SDS011;4094;49.948;11.574;2023-10-09T13:06:19;8.17;;;6.00;;
8102;SDS011;4094;49.948;11.574;2023-10-09T13:08:52;7.00;;;6.30;;
8102;SDS011;4094;49.948;11.574;2023-10-09T13:11:28;8.33;;;6.30;;
8102;SDS011;4094;49.948;11.574;2023-10-09T13:13:58;7.20;;;6.17;;
8102;SDS011;4094;49.948;11.574;2023-10-09T13:16:39;7.40;;;6.20;;
8102;SDS011;4094;49.948;11.574;2023-10-09T13:19:08;11.37;;;6.67;;
8102;SDS011;4094;49.948;11.574;2023-10-09T13:21:37;8.73;;;6.27;;
8102;SDS011;4094;49.948;11.574;2023-10-09T13:24:07;7.10;;;6.40;;
8102;SDS011;4094;49.948;11.574;2023-10-09T13:26:43;7.73;;;6.03;;
8102;SDS011;4094;49.948;11.574;2023-10-09T13:29:14;9.67;;;6.23;;
8102;SDS011;4094;49.948;11.574;2023-10-09T13:31:50;6.67;;;6.00;;
8102;SDS011;4094;49.948;11.574;2023-10-09T13:34:24;7.43;;;6.10;;
8102;SDS011;4094;49.948;11.574;2023-10-09T13:36:55;8.17;;;6.07;;
8102;SDS011;4094;49.948;11.574;2023-10-09T13:39:27;7.47;;;5.83;;
8102;SDS011;4094;49.948;11.574;2023-10-09T13:42:06;7.13;;;5.90;;
8102;SDS011;4094;49.948;11.574;2023-10-09T13:44:35;6.93;;;6.13;;
8102;SDS011;4094;49.948;11.574;2023-10-09T13:47:09;6.70;;;5.93;;
8102;SDS011;4094;49.948;11.574;2023-10-09T13:49:47;11.67;;;6.73;;
8102;SDS011;4094;49.948;11.574;2023-10-09T13:52:18;7.67;;;6.87;;
8102;SDS011;4094;49.948;11.574;2023-10-09T13:54:49;7.00;;;6.23;;
8102;SDS011;4094;49.948;11.574;2023-10-09T13:57:20;8.53;;;6.27;;
8102;SDS011;4094;49.948;11.574;2023-10-09T13:59:50;7.53;;;6.57;;
8102;SDS011;4094;49.948;11.574;2023-10-09T14:02:19;8.87;;;6.43;;
8102;SDS011;4094;49.948;11.574;2023-10-09T14:04:49;7.67;;;5.93;;
8102;SDS011;4094;49.948;11.574;2023-10-09T14:07:19;7.47;;;5.90;;
8102;SDS011;4094;49.948;11.574;2023-10-09T14:09:48;10.83;;;6.33;;
8102;SDS011;4094;49.948;11.574;2023-10-09T14:12:36;7.63;;;5.93;;
8102;SDS011;4094;49.948;11.574;2023-10-09T14:15:08;7.77;;;5.43;;
8102;SDS011;4094;49.948;11.574;2023-10-09T14:17:46;6.63;;;5.97;;
8102;SDS011;4094;49.948;11.574;2023-10-09T14:20:23;6.47;;;5.80;;
8102;SDS011;4094;49.948;11.574;2023-10-09T14:22:58;6.73;;;6.03;;
8102;SDS011;4094;49.948;11.574;2023-10-09T14:25:34;6.73;;;5.70;;
8102;SDS011;4094;49.948;11.574;2023-10-09T14:28:06;10.33;;;6.23;;
8102;SDS011;4094;49.948;11.574;2023-10-09T14:30:36;6.80;;;6.10;;
8102;SDS011;4094;49.948;11.574;2023-10-09T14:33:10;8.40;;;5.73;;
8102;SDS011;4094;49.948;11.574;2023-10-09T14:35:41;7.17;;;6.10;;
8102;SDS011;4094;49.948;11.574;2023-10-09T14:38:12;8.20;;;6.70;;
8102;SDS011;4094;49.948;11.574;2023-10-09T14:40:43;8.03;;;6.47;;
8102;SDS011;4094;49.948;11.574;2023-10-09T14:43:14;8.97;;;6.30;;
8102;SDS011;4094;49.948;11.574;2023-10-09T14:45:55;7.17;;;6.47;;
8102;SDS011;4094;49.948;11.574;2023-10-09T14:48:25;10.07;;;6.80;;
8102;SDS011;4094;49.948;11.574;2023-10-09T14:50:54;7.50;;;6.40;;
8102;SDS011;4094;49.948;11.574;2023-10-09T14:53:32;6.73;;;6.03;;
8102;SDS011;4094;49.948;11.574;2023-10-09T14:56:02;9.43;;;6.97;;
8102;SDS011;4094;49.948;11.574;2023-10-09T14:58:37;11.43;;;6.80;;
8102;SDS011;4094;49.948;11.574;2023-10-09T15:01:09;9.70;;;6.10;;
8102;SDS011;4094;49.948;11.574;2023-10-09T15:03:40;7.23;;;6.33;;
8102;SDS011;4094;49.948;11.574;2023-10-09T15:06:10;8.37;;;6.73;;
8102;SDS011;4094;49.948;11.574;2023-10-09T15:08:39;8.53;;;6.90;;
8102;SDS011;4094;49.948;11.574;2023-10-09T15:11:10;8.60;;;6.33;;
8102;SDS011;4094;49.948;11.574;2023-10-09T15:13:40;8.07;;;7.00;;
8102;SDS011;4094;49.948;11.574;2023-10-09T15:16:09;8.63;;;6.70;;
8102;SDS011;4094;49.948;11.574;2023-10-09T15:18:39;8.87;;;7.20;;
8102;SDS011;4094;49.948;11.574;2023-10-09T15:21:09;10.33;;;6.90;;
8102;SDS011;4094;49.948;11.574;2023-10-09T15:23:38;9.90;;;7.27;;
8102;SDS011;4094;49.948;11.574;2023-10-09T15:26:07;10.37;;;7.10;;
8102;SDS011;4094;49.948;11.574;2023-10-09T15:28:39;11.13;;;7.00;;
8102;SDS011;4094;49.948;11.574;2023-10-09T15:31:10;9.27;;;6.93;;
8102;SDS011;4094;49.948;11.574;2023-10-09T15:33:43;8.57;;;7.13;;
8102;SDS011;4094;49.948;11.574;2023-10-09T15:36:12;7.93;;;6.87;;
8102;SDS011;4094;49.948;11.574;2023-10-09T15:38:45;8.53;;;7.00;;
8102;SDS011;4094;49.948;11.574;2023-10-09T15:41:15;10.23;;;7.23;;
8102;SDS011;4094;49.948;11.574;2023-10-09T15:43:47;8.50;;;6.83;;
8102;SDS011;4094;49.948;11.574;2023-10-09T15:46:16;11.67;;;7.13;;
8102;SDS011;4094;49.948;11.574;2023-10-09T15:48:50;7.93;;;6.40;;
8102;SDS011;4094;49.948;11.574;2023-10-09T15:51:20;10.17;;;7.03;;
8102;SDS011;4094;49.948;11.574;2023-10-09T15:53:50;10.10;;;7.10;;
8102;SDS011;4094;49.948;11.574;2023-10-09T15:56:19;10.30;;;6.90;;
8102;SDS011;4094;49.948;11.574;2023-10-09T15:58:50;7.87;;;7.07;;
8102;SDS011;4094;49.948;11.574;2023-10-09T16:01:21;7.80;;;6.50;;